Terminal Aerodrome Forecast
Issued by NWS

Home | Current Version | Previous Version | Text Only | Print | Product List | Glossary On
Versions: 1 2 3 4 5 6 7 8 9 10 11 12 13 14
000
FTUS42 KTBW 282335 AAA
TAFLAL
TAF AMD
KLAL 282335Z 2900/2924 24005KT P6SM VCTS FEW050CB
     FM290300 VRB03KT P6SM SCT050
     FM291200 00000KT P6SM FEW120
     FM291800 23004KT P6SM VCTS BKN045CB
      AMD NOT SKED 2902/2911=

USA.gov is the U.S. government's official web portal to all federal, state and local government web resources and services.